Time;durP1;ratioP1;P1;durP2;ratioP2;P2;SDS_P1;SDS_P2;PMS_P1;PMS_P2;Temp;Humidity;BMP_temperature;BMP_pressure;BME280_temperature;BME280_humidity;BME280_pressure;Samples;Min_cycle;Max_cycle;Signal;HPM_P1;HPM_P2
2023/03/08 00:01:45;;;;;;;;;91.33;67.00;;;;;2.04;100.00;98187.00;6315012;20;3664863;-62
2023/03/08 00:04:14;;;;;;;;;92.00;70.00;;;;;1.92;100.00;98178.75;6316562;20;3650356;-60
2023/03/08 00:06:44;;;;;;;;;85.00;65.00;;;;;2.08;100.00;98188.53;6319352;20;3624250;-60
2023/03/08 00:09:13;;;;;;;;;89.00;67.67;;;;;2.03;100.00;98188.78;6318635;20;3638831;-60
2023/03/08 00:11:43;;;;;;;;;85.00;66.67;;;;;1.97;100.00;98182.03;6317345;20;2879538;-61
2023/03/08 00:14:12;;;;;;;;;89.00;66.00;;;;;2.03;100.00;98177.31;6319109;20;3657579;-61
2023/03/08 00:16:42;;;;;;;;;86.33;65.33;;;;;2.18;100.00;98180.03;6320224;20;3659727;-61
2023/03/08 00:19:12;;;;;;;;;83.33;64.33;;;;;2.22;100.00;98174.59;6317609;20;2871120;-60
2023/03/08 00:21:41;;;;;;;;;83.67;63.67;;;;;2.18;100.00;98172.09;6314957;20;3634747;-60
2023/03/08 00:24:15;;;;;;;;;83.33;62.00;;;;;2.21;100.00;98173.72;6316514;20;3650275;-62
2023/03/08 00:26:45;;;;;;;;;85.00;64.67;;;;;2.26;100.00;98171.69;6318135;20;3638826;-60
2023/03/08 00:29:15;;;;;;;;;77.67;60.67;;;;;2.30;100.00;98178.56;6318910;20;3637771;-60
2023/03/08 00:31:44;;;;;;;;;73.33;56.00;;;;;2.32;100.00;98179.34;6315690;20;2883667;-60
2023/03/08 00:34:15;;;;;;;;;76.67;56.33;;;;;2.17;100.00;98177.50;6316287;20;3636796;-60
2023/03/08 00:36:45;;;;;;;;;81.00;60.67;;;;;2.13;100.00;98175.91;6317386;20;3653382;-60
2023/03/08 00:39:15;;;;;;;;;82.00;60.00;;;;;2.48;100.00;98165.28;6315686;20;3647201;-60
2023/03/08 00:41:44;;;;;;;;;71.33;55.33;;;;;2.52;100.00;98172.97;6316455;20;3627722;-61
2023/03/08 00:44:14;;;;;;;;;75.67;56.33;;;;;2.57;100.00;98180.69;6318032;20;3646096;-60
2023/03/08 00:46:44;;;;;;;;;73.33;57.67;;;;;2.74;100.00;98174.47;6317565;20;3636801;-60
2023/03/08 00:49:13;;;;;;;;;77.00;60.00;;;;;2.83;100.00;98172.19;6316557;20;3625254;-59
2023/03/08 00:51:43;;;;;;;;;71.67;58.00;;;;;2.88;100.00;98173.75;6313317;20;2881692;-60
2023/03/08 00:54:12;;;;;;;;;75.33;56.33;;;;;2.90;100.00;98174.47;6317710;20;3633624;-60
2023/03/08 00:56:41;;;;;;;;;73.50;58.00;;;;;2.89;100.00;98175.44;6315150;20;2863417;-60
2023/03/08 00:59:11;;;;;;;;;74.33;56.67;;;;;2.85;100.00;98175.59;6285040;20;3645052;-59
2023/03/08 01:01:40;;;;;;;;;77.67;55.67;;;;;2.37;100.00;98177.31;6315614;20;3658672;-61
2023/03/08 01:04:11;;;;;;;;;86.33;61.33;;;;;1.98;100.00;98180.22;6317341;20;3665988;-61
2023/03/08 01:06:42;;;;;;;;;75.00;58.00;;;;;2.08;100.00;98183.25;6285617;20;3637846;-60
2023/03/08 01:09:11;;;;;;;;;71.33;57.00;;;;;2.05;100.00;98183.41;6318622;20;2873214;-60
2023/03/08 01:11:40;;;;;;;;;74.00;58.50;;;;;2.30;100.00;98175.91;6313623;20;2877199;-60
2023/03/08 01:14:10;;;;;;;;;76.67;59.00;;;;;2.97;100.00;98178.53;6282523;20;2885774;-60
2023/03/08 01:16:39;;;;;;;;;79.50;61.00;;;;;3.37;100.00;98170.97;6318272;20;2875306;-60
2023/03/08 01:19:10;;;;;;;;;81.00;61.00;;;;;3.47;100.00;98166.88;6286707;20;3634861;-61
2023/03/08 01:21:40;;;;;;;;;79.00;58.67;;;;;3.35;100.00;98168.44;6316758;20;3641109;-60
2023/03/08 01:24:10;;;;;;;;;89.50;67.00;;;;;3.16;100.00;98171.28;6315842;20;3604463;-64
2023/03/08 01:26:39;;;;;;;;;84.00;62.67;;;;;3.30;100.00;98166.03;6315698;20;3649263;-60
2023/03/08 01:29:09;;;;;;;;;87.67;62.67;;;;;3.42;100.00;98168.94;6317460;20;3649371;-60
2023/03/08 01:31:38;;;;;;;;;85.67;58.33;;;;;3.42;100.00;98171.56;6313685;20;3642991;-60
2023/03/08 01:34:09;;;;;;;;;81.67;63.00;;;;;3.52;100.00;98175.41;6315300;20;3630888;-61
2023/03/08 01:36:38;;;;;;;;;80.00;58.00;;;;;3.55;100.00;98164.63;6314980;20;3647153;-60
2023/03/08 01:39:08;;;;;;;;;69.67;54.33;;;;;3.33;100.00;98180.91;6316987;20;3637879;-61
2023/03/08 01:41:38;;;;;;;;;84.00;60.33;;;;;3.43;100.00;98195.38;6315830;20;3671120;-60
2023/03/08 01:44:17;;;;;;;;;81.67;59.00;;;;;3.39;100.00;98200.94;6285429;20;3658608;-60
2023/03/08 01:46:46;;;;;;;;;77.00;58.00;;;;;3.62;100.00;98207.59;6283054;20;3638813;-61
2023/03/08 01:49:34;;;;;;;;;83.33;60.67;;;;;3.78;100.00;98197.81;6318363;20;3663875;-60
2023/03/08 01:52:13;;;;;;;;;76.33;58.33;;;;;3.76;100.00;98206.81;6316880;20;2864876;-61
2023/03/08 01:54:51;;;;;;;;;67.33;55.67;;;;;3.84;100.00;98209.88;6312610;20;2879480;-60
2023/03/08 01:57:59;;;;;;;;;70.00;52.33;;;;;3.78;100.00;98207.56;6315761;20;3640907;-60
2023/03/08 02:00:28;;;;;;;;;67.67;51.00;;;;;3.84;100.00;98209.88;6314130;20;3643043;-60
2023/03/08 02:03:05;;;;;;;;;71.33;53.33;;;;;3.79;100.00;98219.88;6314001;20;3635814;-60
2023/03/08 02:05:40;;;;;;;;;75.67;57.67;;;;;4.01;100.00;98214.22;6314914;20;2879564;-61
2023/03/08 02:08:10;;;;;;;;;77.33;57.67;;;;;3.93;100.00;98220.81;6313523;20;3649284;-60
2023/03/08 02:10:40;;;;;;;;;67.67;54.33;;;;;4.02;100.00;98227.38;6314410;20;3626391;-60
2023/03/08 02:13:11;;;;;;;;;79.67;58.33;;;;;4.06;100.00;98239.56;6314806;20;3629493;-60
2023/03/08 02:15:40;;;;;;;;;76.00;54.67;;;;;3.96;100.00;98239.22;6311199;20;3655531;-61
2023/03/08 02:18:10;;;;;;;;;75.33;57.00;;;;;3.88;100.00;98230.84;6315703;20;3637804;-61
2023/03/08 02:20:40;;;;;;;;;76.00;56.00;;;;;3.87;100.00;98234.47;6315055;20;3641942;-60
2023/03/08 02:23:23;;;;;;;;;75.33;58.33;;;;;4.03;100.00;98233.53;6315328;20;2883612;-60
2023/03/08 02:26:04;;;;;;;;;76.67;55.67;;;;;3.92;100.00;98232.41;6316336;20;3632599;-60
2023/03/08 02:28:34;;;;;;;;;80.33;58.00;;;;;3.93;100.00;98228.78;6312248;20;3642964;-60
2023/03/08 02:31:04;;;;;;;;;74.00;54.33;;;;;3.85;100.00;98238.13;6312744;20;3637765;-60
2023/03/08 02:33:34;;;;;;;;;70.33;57.33;;;;;3.96;100.00;98238.38;6315471;20;3607559;-60
2023/03/08 02:36:07;;;;;;;;;78.33;56.00;;;;;3.90;100.00;98238.72;6316145;20;3636701;-60
2023/03/08 02:38:37;;;;;;;;;80.67;56.33;;;;;3.86;100.00;98237.19;6317927;20;3659624;-60
2023/03/08 02:41:06;;;;;;;;;80.67;56.67;;;;;3.90;100.00;98244.03;6282215;20;3656523;-60
2023/03/08 02:43:36;;;;;;;;;73.33;56.33;;;;;3.90;100.00;98241.38;6314373;20;3631850;-60
2023/03/08 02:46:05;;;;;;;;;76.00;53.00;;;;;3.84;100.00;98242.56;6316184;20;3651300;-60
2023/03/08 02:48:35;;;;;;;;;77.33;57.00;;;;;3.80;100.00;98246.38;6316572;20;3644108;-60
2023/03/08 02:51:05;;;;;;;;;79.00;59.33;;;;;3.69;100.00;98246.97;6312262;20;3648256;-61
2023/03/08 02:53:34;;;;;;;;;73.33;56.00;;;;;3.64;100.00;98254.34;6315428;20;3624358;-60
2023/03/08 02:56:04;;;;;;;;;69.67;55.33;;;;;3.51;100.00;98251.53;6312330;20;2879545;-60
2023/03/08 02:58:34;;;;;;;;;77.33;57.00;;;;;3.41;100.00;98257.44;6314899;20;3636707;-61
2023/03/08 03:01:10;;;;;;;;;64.67;53.00;;;;;3.48;100.00;98254.34;6313374;20;2874303;-61
2023/03/08 03:03:41;;;;;;;;;70.67;55.33;;;;;3.52;100.00;98261.19;6313289;20;3635898;-61
2023/03/08 03:06:20;;;;;;;;;75.67;57.00;;;;;3.52;100.00;98273.59;6315255;20;3647654;-61
2023/03/08 03:08:49;;;;;;;;;77.00;56.33;;;;;3.44;100.00;98278.47;6314402;20;3635804;-60
2023/03/08 03:11:22;;;;;;;;;69.33;54.00;;;;;3.37;100.00;98279.75;6311240;20;2883847;-61
2023/03/08 03:14:00;;;;;;;;;72.33;54.33;;;;;3.44;100.00;98287.28;6309221;20;3636335;-61
2023/03/08 03:16:29;;;;;;;;;72.67;56.67;;;;;3.40;100.00;98277.81;6311348;20;3642056;-61
2023/03/08 03:18:59;;;;;;;;;63.67;48.67;;;;;3.37;100.00;98288.59;6310611;20;3632566;-61
2023/03/08 03:21:29;;;;;;;;;74.67;56.67;;;;;3.44;100.00;98292.59;6309006;20;3637777;-60
2023/03/08 03:23:58;;;;;;;;;71.67;55.00;;;;;3.35;100.00;98289.59;6309995;20;3633561;-61
2023/03/08 03:26:28;;;;;;;;;76.67;56.00;;;;;3.44;100.00;98300.56;6309891;20;3649247;-62
2023/03/08 03:28:59;;;;;;;;;70.00;55.00;;;;;3.35;100.00;98300.22;6314091;20;2884720;-62
2023/03/08 03:31:28;;;;;;;;;73.67;54.33;;;;;3.42;100.00;98306.88;6309909;20;3642310;-61
2023/03/08 03:33:58;;;;;;;;;75.00;56.00;;;;;3.40;100.00;98308.78;6318989;20;3632531;-61
2023/03/08 03:36:28;;;;;;;;;68.33;53.00;;;;;3.51;100.00;98317.00;6322778;20;3629441;-61
2023/03/08 03:38:58;;;;;;;;;69.67;54.33;;;;;3.50;100.00;98315.28;6324521;20;3638873;-61
2023/03/08 03:41:27;;;;;;;;;74.00;56.00;;;;;3.48;100.00;98307.41;6323432;20;3638801;-61
2023/03/08 03:43:58;;;;;;;;;70.67;54.67;;;;;3.57;100.00;98316.66;6325162;20;3638843;-61
2023/03/08 03:46:27;;;;;;;;;77.00;56.67;;;;;3.73;100.00;98322.81;6326214;20;3644000;-61
2023/03/08 03:48:57;;;;;;;;;74.67;56.67;;;;;3.58;100.00;98323.69;6325834;20;3628443;-61
2023/03/08 03:51:27;;;;;;;;;79.00;57.00;;;;;3.76;100.00;98320.94;6321903;20;3631582;-61
2023/03/08 03:53:57;;;;;;;;;73.33;51.00;;;;;3.73;100.00;98320.16;6324824;20;3640885;-61
2023/03/08 03:56:27;;;;;;;;;81.67;58.33;;;;;3.58;100.00;98323.69;6320690;20;3640909;-61
2023/03/08 03:58:57;;;;;;;;;79.00;59.67;;;;;3.50;100.00;98325.88;6324196;20;3637855;-61
2023/03/08 04:01:30;;;;;;;;;74.00;56.33;;;;;3.62;100.00;98334.97;6322725;20;2894549;-61
2023/03/08 04:04:00;;;;;;;;;65.67;51.67;;;;;3.52;100.00;98319.56;6325307;20;3627408;-61
2023/03/08 04:06:32;;;;;;;;;77.67;58.67;;;;;3.50;100.00;98328.53;6325221;20;2885841;-61
2023/03/08 04:09:07;;;;;;;;;75.33;58.00;;;;;3.52;100.00;98318.72;6323203;20;3613828;-61
2023/03/08 04:11:39;;;;;;;;;78.00;60.00;;;;;3.23;100.00;98322.94;6321291;20;3645232;-61
2023/03/08 04:14:10;;;;;;;;;75.33;57.33;;;;;3.17;100.00;98307.38;6324180;20;3645061;-62
2023/03/08 04:16:40;;;;;;;;;78.67;59.67;;;;;3.15;100.00;98309.25;6323851;20;2875309;-61
2023/03/08 04:19:12;;;;;;;;;78.33;58.00;;;;;3.20;100.00;98316.00;6323336;20;3637812;-61
2023/03/08 04:21:42;;;;;;;;;79.67;60.00;;;;;3.17;100.00;98310.03;6322364;20;3630496;-61
2023/03/08 04:24:12;;;;;;;;;71.33;55.67;;;;;3.03;100.00;98305.47;6323778;20;3631573;-61
2023/03/08 04:26:41;;;;;;;;;79.67;59.33;;;;;2.99;100.00;98307.41;6323994;20;3632606;-62
2023/03/08 04:29:11;;;;;;;;;79.00;59.00;;;;;3.10;100.00;98308.63;6323051;20;3632647;-61
2023/03/08 04:31:40;;;;;;;;;69.00;51.67;;;;;3.13;100.00;98317.25;6322358;20;3645102;-61
2023/03/08 04:34:10;;;;;;;;;76.00;58.00;;;;;3.18;100.00;98309.91;6324310;20;3628036;-61
2023/03/08 04:36:39;;;;;;;;;78.67;58.67;;;;;3.07;100.00;98317.59;6322596;20;3649322;-61
2023/03/08 04:39:09;;;;;;;;;78.00;56.67;;;;;3.08;100.00;98321.97;6323339;20;3645104;-61
2023/03/08 04:41:38;;;;;;;;;79.00;59.33;;;;;3.04;100.00;98317.78;6321761;20;3643008;-62
2023/03/08 04:44:08;;;;;;;;;74.00;56.67;;;;;3.10;100.00;98333.34;6322999;20;2889939;-61
2023/03/08 04:46:37;;;;;;;;;80.33;62.33;;;;;2.90;100.00;98322.91;6317698;20;3636771;-61
2023/03/08 04:49:07;;;;;;;;;79.33;60.00;;;;;2.73;100.00;98339.72;6319602;20;3632539;-61
2023/03/08 04:51:37;;;;;;;;;70.67;55.67;;;;;2.74;100.00;98344.94;6315442;20;2890910;-61
2023/03/08 04:54:07;;;;;;;;;76.33;60.00;;;;;2.74;100.00;98344.06;6317961;20;2873302;-62
2023/03/08 04:56:36;;;;;;;;;73.00;55.00;;;;;2.76;100.00;98351.00;6316832;20;3638809;-61
2023/03/08 04:59:06;;;;;;;;;77.00;59.00;;;;;2.67;100.00;98345.34;6317010;20;3515868;-62
2023/03/08 05:01:35;;;;;;;;;74.67;56.67;;;;;2.55;100.00;98354.75;6315748;20;3643014;-61
2023/03/08 05:04:05;;;;;;;;;79.33;59.67;;;;;2.60;100.00;98358.03;6315368;20;3634640;-61
2023/03/08 05:06:34;;;;;;;;;78.67;59.67;;;;;2.59;100.00;98345.72;6316958;20;3634679;-61
2023/03/08 05:09:04;;;;;;;;;75.33;59.00;;;;;2.61;100.00;98349.16;6315169;20;2874311;-61
2023/03/08 05:11:33;;;;;;;;;67.00;55.50;;;;;2.69;100.00;98352.28;6316954;20;2872170;-61
2023/03/08 05:14:03;;;;;;;;;72.00;53.33;;;;;2.80;100.00;98357.88;6284997;20;3648220;-61
2023/03/08 05:16:33;;;;;;;;;77.00;57.67;;;;;2.85;100.00;98347.03;6315014;20;3651333;-61
2023/03/08 05:19:02;;;;;;;;;75.33;57.33;;;;;2.76;100.00;98353.66;6318259;20;3646142;-62
2023/03/08 05:21:32;;;;;;;;;113.33;93.00;;;;;2.76;100.00;98372.22;6314656;20;3677384;-61
2023/03/08 05:24:02;;;;;;;;;98.33;88.00;;;;;2.63;100.00;98368.47;6281692;20;3650283;-62
2023/03/08 05:26:32;;;;;;;;;103.50;83.50;;;;;2.74;100.00;98368.81;6315883;20;3697233;-61
2023/03/08 05:29:05;;;;;;;;;83.00;63.67;;;;;2.74;100.00;98365.25;6283242;20;3644099;-62
2023/03/08 05:31:38;;;;;;;;;80.33;61.00;;;;;2.86;100.00;98362.84;6314480;20;3647118;-61
2023/03/08 05:34:10;;;;;;;;;78.67;60.00;;;;;2.94;100.00;98364.25;6315737;20;3638801;-62
2023/03/08 05:36:41;;;;;;;;;79.33;60.00;;;;;2.78;100.00;98359.75;6313334;20;2892072;-61
2023/03/08 05:39:11;;;;;;;;;83.33;63.00;;;;;2.85;100.00;98366.44;6315722;20;3618110;-61
2023/03/08 05:41:40;;;;;;;;;77.33;60.67;;;;;2.85;100.00;98374.41;6313964;20;2862844;-61
2023/03/08 05:44:10;;;;;;;;;86.33;62.00;;;;;2.90;100.00;98378.59;6317226;20;3635731;-61
2023/03/08 05:46:39;;;;;;;;;83.00;64.00;;;;;3.05;100.00;98381.34;6317083;20;3643093;-61
2023/03/08 05:49:09;;;;;;;;;78.33;61.00;;;;;3.09;100.00;98379.38;6315018;20;3622252;-61
2023/03/08 05:51:39;;;;;;;;;87.00;63.00;;;;;3.11;100.00;98393.41;6314421;20;3650318;-61
2023/03/08 05:54:08;;;;;;;;;89.00;66.00;;;;;3.32;100.00;98401.16;6315239;20;3650334;-61
2023/03/08 05:56:38;;;;;;;;;82.67;63.67;;;;;3.27;100.00;98404.94;6314522;20;3623174;-61
2023/03/08 05:59:07;;;;;;;;;86.67;64.33;;;;;3.41;100.00;98406.00;6315515;20;3635694;-61
2023/03/08 06:01:37;;;;;;;;;84.33;63.00;;;;;3.28;100.00;98414.59;6315341;20;3635858;-61
2023/03/08 06:04:07;;;;;;;;;94.33;79.00;;;;;3.10;100.00;98412.88;6311395;20;3663810;-61
2023/03/08 06:06:37;;;;;;;;;81.00;63.33;;;;;3.06;100.00;98419.31;6285881;20;3634655;-61
2023/03/08 06:09:06;;;;;;;;;87.33;68.33;;;;;2.68;100.00;98418.59;6317137;20;3665913;-62
2023/03/08 06:11:36;;;;;;;;;88.00;67.67;;;;;2.87;100.00;98430.00;6281084;20;3652328;-61
2023/03/08 06:14:05;;;;;;;;;79.00;59.00;;;;;2.90;100.00;98431.59;6312461;20;3640882;-62
2023/03/08 06:16:35;;;;;;;;;77.00;58.00;;;;;2.80;100.00;98449.78;6312793;20;3635787;-61
2023/03/08 06:19:05;;;;;;;;;75.33;57.33;;;;;2.94;100.00;98460.53;6317405;20;3639886;-62
2023/03/08 06:21:34;;;;;;;;;91.00;65.67;;;;;3.14;100.00;98462.19;6307441;20;3651821;-62
2023/03/08 06:24:04;;;;;;;;;82.33;63.67;;;;;3.39;100.00;98463.56;6313279;20;3638882;-61
2023/03/08 06:26:54;;;;;;;;;96.67;82.33;;;;;3.42;100.00;98461.63;6314124;20;3670087;-62
2023/03/08 06:29:24;;;;;;;;;95.33;80.00;;;;;3.66;100.00;98458.59;6282907;20;3680607;-62
2023/03/08 06:31:54;;;;;;;;;97.67;84.67;;;;;3.78;100.00;98473.88;6282624;20;3673235;-62
2023/03/08 06:34:23;;;;;;;;;95.67;76.33;;;;;3.85;100.00;98474.44;6284329;20;3678398;-62
2023/03/08 06:36:55;;;;;;;;;92.67;77.67;;;;;3.62;100.00;98473.84;6283731;20;3671124;-61
2023/03/08 06:39:29;;;;;;;;;94.00;75.67;;;;;3.86;100.00;98471.66;6282460;20;3682684;-61
2023/03/08 06:42:01;;;;;;;;;84.00;66.67;;;;;4.10;100.00;98473.94;6280883;20;3636706;-61
2023/03/08 06:44:30;;;;;;;;;74.33;58.33;;;;;4.24;100.00;98475.81;6315997;20;2881593;-62
2023/03/08 06:47:00;;;;;;;;;74.00;53.67;;;;;4.39;100.00;98480.28;6314318;20;3646168;-61
2023/03/08 06:49:30;;;;;;;;;72.00;54.00;;;;;4.14;100.00;98481.66;6316245;20;3636708;-61
2023/03/08 06:51:59;;;;;;;;;67.33;51.00;;;;;4.41;100.00;98481.06;6314015;20;3632635;-61
2023/03/08 06:54:29;;;;;;;;;65.00;51.67;;;;;4.33;100.00;98485.97;6316339;20;3625255;-61
2023/03/08 06:56:58;;;;;;;;;71.67;53.00;;;;;4.66;100.00;98492.97;6313132;20;3647131;-61
2023/03/08 06:59:27;;;;;;;;;61.00;49.50;;;;;4.59;100.00;98495.13;6312265;20;2854472;-61
2023/03/08 07:01:56;;;;;;;;;62.50;51.50;;;;;4.54;100.00;98506.03;6283420;20;2875250;-62
2023/03/08 07:04:25;;;;;;;;;61.67;49.00;;;;;5.08;100.00;98510.91;6284841;20;2878445;-62
2023/03/08 07:06:55;;;;;;;;;71.67;55.00;;;;;5.19;100.00;98518.31;6316423;20;2882771;-61
2023/03/08 07:09:24;;;;;;;;;62.00;45.00;;;;;5.79;100.00;98515.56;6311468;20;3648325;-61
2023/03/08 07:11:54;;;;;;;;;62.33;49.00;;;;;6.19;100.00;98521.16;6315338;20;2860879;-62
2023/03/08 07:14:23;;;;;;;;;63.00;50.00;;;;;7.05;97.81;98520.97;6314564;20;2861868;-62
2023/03/08 07:16:53;;;;;;;;;63.67;50.33;;;;;8.19;91.82;98518.56;6313277;20;3633607;-62
2023/03/08 07:19:22;;;;;;;;;60.00;48.50;;;;;8.34;87.80;98530.84;6315347;20;2855934;-62
2023/03/08 07:21:51;;;;;;;;;58.00;47.67;;;;;7.58;90.65;98535.22;6284601;20;2869112;-62
2023/03/08 07:24:21;;;;;;;;;59.33;46.33;;;;;7.09;93.41;98543.00;6311812;20;3626288;-62
2023/03/08 07:26:50;;;;;;;;;62.33;50.00;;;;;7.15;94.15;98543.41;6314800;20;3620045;-63
2023/03/08 07:29:20;;;;;;;;;73.33;54.33;;;;;7.24;94.06;98541.94;6314380;20;3651313;-62
2023/03/08 07:31:49;;;;;;;;;71.67;55.00;;;;;7.49;92.81;98541.19;6310513;20;3646088;-62
2023/03/08 07:34:19;;;;;;;;;70.00;55.33;;;;;7.43;93.63;98536.25;6312995;20;3636724;-61
2023/03/08 07:36:49;;;;;;;;;64.00;51.33;;;;;7.30;92.65;98530.88;6314639;20;3636058;-62
2023/03/08 07:39:19;;;;;;;;;63.33;48.33;;;;;7.35;92.00;98538.59;6314095;20;3610681;-61
2023/03/08 07:41:49;;;;;;;;;64.33;50.33;;;;;7.67;92.59;98539.94;6313706;20;3631507;-61
2023/03/08 07:44:18;;;;;;;;;60.67;48.00;;;;;7.51;88.78;98549.94;6314731;20;2877535;-60
2023/03/08 07:46:48;;;;;;;;;64.67;47.67;;;;;8.72;85.91;98548.69;6311871;20;3623195;-61
2023/03/08 07:49:17;;;;;;;;;58.33;45.33;;;;;8.97;82.71;98553.94;6311008;20;3616934;-61
2023/03/08 07:51:52;;;;;;;;;63.00;47.33;;;;;9.05;82.03;98552.53;6312604;20;3617479;-61
2023/03/08 07:54:22;;;;;;;;;57.67;45.33;;;;;7.98;84.64;98561.88;6313377;20;3620190;-61
2023/03/08 07:56:53;;;;;;;;;57.00;42.00;;;;;7.86;85.62;98565.41;6312388;20;2857535;-61
2023/03/08 07:59:23;;;;;;;;;57.50;44.50;;;;;7.67;86.21;98572.00;6311735;20;2852412;-60
2023/03/08 08:01:53;;;;;;;;;58.33;46.00;;;;;8.25;85.56;98576.97;6281596;20;3613847;-60
2023/03/08 08:04:22;;;;;;;;;53.67;41.33;;;;;7.85;85.78;98574.38;6314464;20;3614965;-59
2023/03/08 08:06:52;;;;;;;;;57.67;44.00;;;;;7.90;85.21;98577.59;6313688;20;2901478;-60
2023/03/08 08:09:21;;;;;;;;;53.67;42.00;;;;;7.56;85.70;98585.22;6313037;20;2858688;-60
2023/03/08 08:11:50;;;;;;;;;60.33;43.33;;;;;8.03;85.64;98588.28;6314932;20;3619007;-61
2023/03/08 08:14:20;;;;;;;;;55.67;44.00;;;;;7.96;85.83;98587.00;6313520;20;3613905;-59
2023/03/08 08:16:50;;;;;;;;;64.67;47.67;;;;;8.23;84.47;98586.91;6313357;20;3621089;-60
2023/03/08 08:19:19;;;;;;;;;58.00;44.67;;;;;8.70;80.37;98602.31;6313424;20;3620089;-60
2023/03/08 08:21:48;;;;;;;;;57.33;41.00;;;;;8.76;78.77;98604.53;6319799;20;3632587;-60
2023/03/08 08:24:17;;;;;;;;;44.00;37.33;;;;;8.42;77.68;98606.06;6287681;20;2862914;-60
2023/03/08 08:26:46;;;;;;;;;43.00;36.67;;;;;9.06;75.17;98605.13;6316501;20;3602905;-60
2023/03/08 08:29:16;;;;;;;;;34.00;33.33;;;;;9.19;71.91;98600.59;6286450;20;2844131;-60
2023/03/08 08:31:44;;;;;;;;;34.00;31.33;;;;;10.20;70.67;98605.50;6319878;20;3600280;-61
2023/03/08 08:34:14;;;;;;;;;39.67;36.67;;;;;10.13;68.71;98607.78;6285921;20;2848409;-60
2023/03/08 08:36:43;;;;;;;;;42.00;37.00;;;;;9.71;69.26;98609.25;6318954;20;2873254;-60
2023/03/08 08:39:12;;;;;;;;;41.67;35.67;;;;;9.10;69.79;98602.09;6319634;20;3585038;-60
2023/03/08 08:41:41;;;;;;;;;42.00;38.33;;;;;8.86;70.75;98606.56;6283358;20;2871142;-60
2023/03/08 08:44:11;;;;;;;;;52.33;39.67;;;;;9.70;68.31;98603.03;6317237;20;2862978;-60
2023/03/08 08:46:40;;;;;;;;;44.67;35.67;;;;;9.59;68.23;98608.34;6321632;20;3617096;-60
2023/03/08 08:49:10;;;;;;;;;41.33;34.33;;;;;10.33;64.41;98608.97;6285836;20;2864934;-61
2023/03/08 08:51:40;;;;;;;;;40.00;35.00;;;;;11.43;60.70;98610.03;6314406;20;2868128;-60
2023/03/08 08:54:09;;;;;;;;;43.67;35.00;;;;;11.34;60.57;98606.25;6317570;20;2851357;-60
2023/03/08 08:56:41;;;;;;;;;34.67;32.67;;;;;10.80;59.25;98611.59;6320583;20;3588819;-60
2023/03/08 08:59:12;;;;;;;;;37.67;32.33;;;;;10.98;58.93;98615.47;6286799;20;3559716;-60
2023/03/08 09:01:44;;;;;;;;;46.50;38.50;;;;;9.80;61.83;98600.53;6282587;20;2866923;-59
2023/03/08 09:04:15;;;;;;;;;27.50;24.00;;;;;10.52;60.71;98603.03;6284437;20;2847177;-59
2023/03/08 09:06:44;;;;;;;;;39.00;34.67;;;;;10.95;60.16;98603.16;6287262;20;3578525;-60
2023/03/08 09:09:13;;;;;;;;;25.00;20.50;;;;;10.16;59.81;98602.19;6284936;20;2844116;-60
2023/03/08 09:11:42;;;;;;;;;29.33;28.00;;;;;10.82;58.14;98588.13;6286682;20;3598182;-59
2023/03/08 09:14:24;;;;;;;;;31.67;31.00;;;;;11.00;56.81;98592.00;6285706;20;3606805;-60
2023/03/08 09:16:53;;;;;;;;;37.00;33.33;;;;;10.88;55.97;98593.03;6321929;20;3596152;-60
2023/03/08 09:19:22;;;;;;;;;34.33;32.00;;;;;11.22;55.95;98591.16;6287513;20;2849234;-60
2023/03/08 09:21:51;;;;;;;;;37.00;34.67;;;;;11.85;54.81;98594.84;6319394;20;3602513;-60
2023/03/08 09:24:20;;;;;;;;;40.67;34.33;;;;;11.20;55.53;98596.63;6285610;20;3591999;-60
2023/03/08 09:26:51;;;;;;;;;37.50;33.50;;;;;10.54;56.52;98590.34;6283635;20;2848287;-60
2023/03/08 09:29:20;;;;;;;;;38.33;32.67;;;;;10.82;55.78;98588.13;6285512;20;3598166;-60
2023/03/08 09:31:49;;;;;;;;;29.00;28.00;;;;;10.15;58.07;98586.22;6283664;20;2846245;-59
2023/03/08 09:34:18;;;;;;;;;37.33;34.67;;;;;10.10;59.83;98594.63;6317308;20;3603461;-59
2023/03/08 09:36:47;;;;;;;;;35.67;31.33;;;;;10.61;59.29;98598.75;6285031;20;2849334;-60
2023/03/08 09:39:16;;;;;;;;;41.67;36.33;;;;;10.98;57.23;98597.53;6318996;20;3621229;-59
2023/03/08 09:42:01;;;;;;;;;39.33;34.33;;;;;10.91;57.43;98592.78;6286649;20;3615925;-59
2023/03/08 09:45:02;;;;;;;;;42.67;37.33;;;;;11.14;56.02;98589.09;6284264;20;2851305;-59
2023/03/08 09:48:09;;;;;;;;;40.00;33.33;;;;;10.90;55.18;98591.03;6315186;20;3608723;-59
2023/03/08 09:50:53;;;;;;;;;40.33;32.33;;;;;11.05;56.04;98584.44;6317441;20;3608683;-59
2023/03/08 09:53:54;;;;;;;;;34.67;30.33;;;;;11.09;55.20;98585.91;6287189;20;3609622;-58
2023/03/08 09:56:49;;;;;;;;;35.33;33.33;;;;;11.89;53.44;98579.31;6284347;20;2845114;-60
2023/03/08 09:59:39;;;;;;;;;43.67;33.00;;;;;11.48;52.98;98575.56;6317917;20;3619000;-59
2023/03/08 10:02:25;;;;;;;;;35.67;31.33;;;;;11.93;52.58;98570.00;6283563;20;3592040;-60
2023/03/08 10:05:11;;;;;;;;;39.00;36.00;;;;;11.95;53.13;98577.94;6286132;20;2851364;-58
2023/03/08 10:08:17;;;;;;;;;35.67;30.67;;;;;12.43;51.56;98577.41;6284513;20;3604467;-60
2023/03/08 10:11:04;;;;;;;;;34.67;32.00;;;;;11.36;53.11;98576.56;6288681;20;3584697;-60
2023/03/08 10:13:43;;;;;;;;;43.00;34.33;;;;;11.80;54.07;98574.69;6281401;20;3613926;-60
2023/03/08 10:16:34;;;;;;;;;27.33;27.33;;;;;11.54;53.09;98580.41;6311384;20;3587771;-58
2023/03/08 10:19:30;;;;;;;;;36.67;31.67;;;;;11.49;53.36;98571.88;6282626;20;3588804;-59
2023/03/08 10:22:14;;;;;;;;;32.33;30.33;;;;;11.80;52.25;98570.16;6286771;20;3594066;-60
2023/03/08 10:25:00;;;;;;;;;36.00;29.33;;;;;12.30;50.81;98564.16;6282404;20;3628501;-59
2023/03/08 10:27:34;;;;;;;;;34.00;30.00;;;;;12.24;51.54;98561.97;6281778;20;2848220;-60
2023/03/08 10:30:15;;;;;;;;;31.67;30.67;;;;;12.46;49.83;98569.91;6284202;20;3594140;-60
2023/03/08 10:32:50;;;;;;;;;35.33;33.00;;;;;12.04;51.88;98567.25;6283278;20;2850430;-60
2023/03/08 10:35:38;;;;;;;;;40.33;35.00;;;;;12.46;51.37;98561.81;6316927;20;3584742;-60
2023/03/08 10:38:16;;;;;;;;;30.00;29.00;;;;;13.23;48.62;98567.63;6282554;20;3588859;-60
2023/03/08 10:40:46;;;;;;;;;37.33;33.00;;;;;13.02;49.34;98567.72;6287213;20;3595087;-60
2023/03/08 10:43:47;;;;;;;;;39.00;34.00;;;;;12.96;48.45;98564.56;6279442;20;3602465;-60
2023/03/08 10:46:24;;;;;;;;;28.33;27.00;;;;;12.22;49.12;98574.75;6316081;20;3604478;-60
2023/03/08 10:48:53;;;;;;;;;31.67;25.67;;;;;12.40;47.90;98566.88;6286779;20;3596094;-59
2023/03/08 10:51:28;;;;;;;;;35.00;30.00;;;;;12.80;46.69;98566.94;6280415;20;3619011;-60
2023/03/08 10:54:03;;;;;;;;;37.00;33.33;;;;;12.72;46.94;98559.53;6319426;20;3597246;-61
2023/03/08 10:56:45;;;;;;;;;30.50;24.00;;;;;13.09;46.30;98563.50;6281951;20;2848249;-60
2023/03/08 10:59:31;;;;;;;;;27.00;25.33;;;;;12.80;46.04;98558.84;6285388;20;3591991;-61
2023/03/08 11:02:21;;;;;;;;;31.00;27.13;;;;;12.83;45.95;98557.72;6307606;20;3582567;-60
2023/03/08 11:04:54;;;;;;;;;27.50;23.00;;;;;13.04;44.85;98560.34;6284328;20;2848159;-60
2023/03/08 11:07:32;;;;;;;;;22.00;20.00;;;;;12.66;44.93;98551.13;6280157;20;2834652;-60
2023/03/08 11:10:18;;;;;;;;;28.00;23.50;;;;;12.38;46.20;98550.03;6281788;20;2866924;-59
2023/03/08 11:12:46;;;;;;;;;19.00;18.00;;;;;12.59;45.61;98548.16;6283457;20;2835724;-60
2023/03/08 11:15:18;;;;;;;;;15.50;12.00;;;;;12.15;45.72;98535.88;6287326;20;2799264;-61
2023/03/08 11:18:53;;;;;;;;;22.00;21.00;;;;;12.59;46.40;98529.28;6283584;20;2846124;-60
2023/03/08 11:22:11;;;;;;;;;27.00;25.00;;;;;11.81;46.50;98530.66;6280774;20;3596185;-60
2023/03/08 11:25:10;;;;;;;;;26.67;25.33;;;;;12.30;45.47;98529.16;6277251;20;2850825;-59
2023/03/08 11:28:50;;;;;;;;;26.00;21.33;;;;;12.32;45.71;98534.41;6309542;20;2848211;-60